首页
METAR-TAF:

METAR-TAF

机场 :

Tiree, 苏格兰

纬度: 56-30N, 经度: 006-53W, 海拔: 12米

当前天气观测

该预报发布于29分钟前的12:20 UTC
风速3节,风向东转东南
温度 11°C
湿度 71%
气压 1001 hPa
能见度10公里或以上
散云层高于3200英尺

METAR: EGPU 231220Z 12003KT 9999 SCT032 11/06 Q1001

时间: 13:49 (12:49 UTC)

预报

该预报发布于1小时和45分钟前的11:04 UTC
预报有效从23日的 12点(UTC)到 23日的 18点(UTC)
风速4节,风向西
能见度10公里或以上
少量云层高于3000英尺
几率 30% :
短暂存在
从 23日的 12点(UTC)到 23日的 18点(UTC)
能見度: 7000
小阵雨

TAF: EGPU 231104Z 2312/2318 28004KT 9999 FEW030 PROB30 TEMPO 2312/2318 7000 -SHRA

超过4000个机场的气象观测和天气预报(METAR&TAF报告)。

可查询的气象台以黄色和红色小点在地图上表示。

将鼠标移到小点上方,可查看气象台名称。

然后点击查看天气观测和预报。

如需切换地图:点击带黑十字的绿色按钮放大地图;点击带横线的绿色按钮缩小地图;或者点击绿色箭头查看邻近地区的地图。


METAR-TAF: